sensor_id;sensor_type;location;lat;lon;timestamp;P1;durP1;ratioP1;P2;durP2;ratioP2
26750;SDS011;14345;48.272;25.926;2022-11-20T00:00:10;42.47;;;26.70;;
26750;SDS011;14345;48.272;25.926;2022-11-20T00:02:36;41.45;;;25.70;;
26750;SDS011;14345;48.272;25.926;2022-11-20T00:05:02;39.20;;;24.42;;
26750;SDS011;14345;48.272;25.926;2022-11-20T00:07:28;34.88;;;22.77;;
26750;SDS011;14345;48.272;25.926;2022-11-20T00:09:55;37.65;;;24.10;;
26750;SDS011;14345;48.272;25.926;2022-11-20T00:12:20;40.58;;;25.95;;
26750;SDS011;14345;48.272;25.926;2022-11-20T00:14:46;39.08;;;24.92;;
26750;SDS011;14345;48.272;25.926;2022-11-20T00:17:12;36.08;;;23.67;;
26750;SDS011;14345;48.272;25.926;2022-11-20T00:19:38;40.03;;;24.60;;
26750;SDS011;14345;48.272;25.926;2022-11-20T00:22:04;38.35;;;24.52;;
26750;SDS011;14345;48.272;25.926;2022-11-20T00:24:30;39.85;;;25.00;;
26750;SDS011;14345;48.272;25.926;2022-11-20T00:26:56;36.90;;;22.85;;
26750;SDS011;14345;48.272;25.926;2022-11-20T00:29:22;39.22;;;25.05;;
26750;SDS011;14345;48.272;25.926;2022-11-20T00:31:48;37.80;;;24.85;;
26750;SDS011;14345;48.272;25.926;2022-11-20T00:34:14;34.45;;;22.45;;
26750;SDS011;14345;48.272;25.926;2022-11-20T00:36:40;42.47;;;25.35;;
26750;SDS011;14345;48.272;25.926;2022-11-20T00:39:06;41.38;;;25.67;;
26750;SDS011;14345;48.272;25.926;2022-11-20T00:41:32;40.38;;;25.00;;
26750;SDS011;14345;48.272;25.926;2022-11-20T00:43:58;38.80;;;24.52;;
26750;SDS011;14345;48.272;25.926;2022-11-20T00:46:25;38.45;;;24.15;;
26750;SDS011;14345;48.272;25.926;2022-11-20T00:48:52;35.90;;;22.95;;
26750;SDS011;14345;48.272;25.926;2022-11-20T00:51:18;34.28;;;22.08;;
26750;SDS011;14345;48.272;25.926;2022-11-20T00:53:45;40.25;;;22.83;;
26750;SDS011;14345;48.272;25.926;2022-11-20T00:56:12;38.42;;;23.63;;
26750;SDS011;14345;48.272;25.926;2022-11-20T00:58:40;37.40;;;23.52;;
26750;SDS011;14345;48.272;25.926;2022-11-20T01:03:33;32.95;;;21.77;;
26750;SDS011;14345;48.272;25.926;2022-11-20T01:06:02;38.22;;;23.58;;
26750;SDS011;14345;48.272;25.926;2022-11-20T01:08:30;38.35;;;24.42;;
26750;SDS011;14345;48.272;25.926;2022-11-20T01:11:04;41.30;;;24.42;;
26750;SDS011;14345;48.272;25.926;2022-11-20T01:16:24;35.90;;;22.50;;
26750;SDS011;14345;48.272;25.926;2022-11-20T01:18:50;43.05;;;24.30;;
26750;SDS011;14345;48.272;25.926;2022-11-20T01:21:18;34.63;;;22.27;;
26750;SDS011;14345;48.272;25.926;2022-11-20T01:23:44;33.25;;;20.95;;
26750;SDS011;14345;48.272;25.926;2022-11-20T01:26:12;41.10;;;23.95;;
26750;SDS011;14345;48.272;25.926;2022-11-20T01:28:38;33.58;;;21.80;;
26750;SDS011;14345;48.272;25.926;2022-11-20T01:31:15;36.67;;;23.20;;
26750;SDS011;14345;48.272;25.926;2022-11-20T01:33:42;37.35;;;23.98;;
26750;SDS011;14345;48.272;25.926;2022-11-20T01:36:09;35.25;;;23.98;;
26750;SDS011;14345;48.272;25.926;2022-11-20T01:38:35;38.17;;;23.90;;
26750;SDS011;14345;48.272;25.926;2022-11-20T01:41:01;30.08;;;20.33;;
26750;SDS011;14345;48.272;25.926;2022-11-20T01:43:27;33.25;;;21.60;;
26750;SDS011;14345;48.272;25.926;2022-11-20T01:50:58;38.90;;;24.05;;
26750;SDS011;14345;48.272;25.926;2022-11-20T01:53:25;30.42;;;21.08;;
26750;SDS011;14345;48.272;25.926;2022-11-20T01:55:53;33.92;;;22.40;;
26750;SDS011;14345;48.272;25.926;2022-11-20T01:58:21;31.85;;;21.17;;
26750;SDS011;14345;48.272;25.926;2022-11-20T02:00:48;35.72;;;21.90;;
26750;SDS011;14345;48.272;25.926;2022-11-20T02:03:15;33.85;;;22.25;;
26750;SDS011;14345;48.272;25.926;2022-11-20T02:05:46;33.28;;;21.42;;
26750;SDS011;14345;48.272;25.926;2022-11-20T02:08:15;33.97;;;21.15;;
26750;SDS011;14345;48.272;25.926;2022-11-20T02:10:41;30.65;;;20.65;;
26750;SDS011;14345;48.272;25.926;2022-11-20T02:13:07;32.60;;;20.00;;
26750;SDS011;14345;48.272;25.926;2022-11-20T02:15:52;26.38;;;17.63;;
26750;SDS011;14345;48.272;25.926;2022-11-20T02:18:19;23.27;;;16.63;;
26750;SDS011;14345;48.272;25.926;2022-11-20T02:20:47;27.27;;;17.75;;
26750;SDS011;14345;48.272;25.926;2022-11-20T02:26:12;24.13;;;17.48;;
26750;SDS011;14345;48.272;25.926;2022-11-20T02:28:38;22.55;;;16.23;;
26750;SDS011;14345;48.272;25.926;2022-11-20T02:31:05;22.63;;;15.23;;
26750;SDS011;14345;48.272;25.926;2022-11-20T02:33:31;22.13;;;15.75;;
26750;SDS011;14345;48.272;25.926;2022-11-20T02:35:57;21.27;;;15.93;;
26750;SDS011;14345;48.272;25.926;2022-11-20T02:38:23;20.67;;;14.13;;
26750;SDS011;14345;48.272;25.926;2022-11-20T02:40:49;24.10;;;15.80;;
26750;SDS011;14345;48.272;25.926;2022-11-20T02:43:15;20.30;;;14.75;;
26750;SDS011;14345;48.272;25.926;2022-11-20T02:45:41;20.48;;;13.88;;
26750;SDS011;14345;48.272;25.926;2022-11-20T02:48:07;21.70;;;14.70;;
26750;SDS011;14345;48.272;25.926;2022-11-20T02:50:35;19.27;;;13.13;;
26750;SDS011;14345;48.272;25.926;2022-11-20T02:53:02;16.30;;;11.82;;
26750;SDS011;14345;48.272;25.926;2022-11-20T02:55:28;15.75;;;11.77;;
26750;SDS011;14345;48.272;25.926;2022-11-20T02:57:54;18.23;;;12.20;;
26750;SDS011;14345;48.272;25.926;2022-11-20T03:00:20;16.77;;;11.95;;
26750;SDS011;14345;48.272;25.926;2022-11-20T03:02:46;15.13;;;10.60;;
26750;SDS011;14345;48.272;25.926;2022-11-20T03:05:12;14.15;;;9.77;;
26750;SDS011;14345;48.272;25.926;2022-11-20T03:07:38;16.13;;;10.43;;
26750;SDS011;14345;48.272;25.926;2022-11-20T03:10:04;14.68;;;9.57;;
26750;SDS011;14345;48.272;25.926;2022-11-20T03:12:30;15.82;;;10.38;;
26750;SDS011;14345;48.272;25.926;2022-11-20T03:14:56;14.35;;;9.90;;
26750;SDS011;14345;48.272;25.926;2022-11-20T03:17:22;12.23;;;8.98;;
26750;SDS011;14345;48.272;25.926;2022-11-20T03:19:48;12.10;;;9.07;;
26750;SDS011;14345;48.272;25.926;2022-11-20T03:22:14;10.48;;;7.50;;
26750;SDS011;14345;48.272;25.926;2022-11-20T03:24:40;13.10;;;8.85;;
26750;SDS011;14345;48.272;25.926;2022-11-20T03:27:06;12.60;;;8.40;;
26750;SDS011;14345;48.272;25.926;2022-11-20T03:29:32;10.60;;;7.95;;
26750;SDS011;14345;48.272;25.926;2022-11-20T03:31:58;10.65;;;7.68;;
26750;SDS011;14345;48.272;25.926;2022-11-20T03:34:24;9.68;;;7.57;;
26750;SDS011;14345;48.272;25.926;2022-11-20T03:36:50;14.77;;;9.52;;
26750;SDS011;14345;48.272;25.926;2022-11-20T03:39:16;11.35;;;8.13;;
26750;SDS011;14345;48.272;25.926;2022-11-20T03:41:42;11.05;;;7.95;;
26750;SDS011;14345;48.272;25.926;2022-11-20T03:44:09;11.18;;;7.50;;
26750;SDS011;14345;48.272;25.926;2022-11-20T03:46:35;10.13;;;6.43;;
26750;SDS011;14345;48.272;25.926;2022-11-20T03:49:01;11.63;;;7.43;;
26750;SDS011;14345;48.272;25.926;2022-11-20T03:51:36;13.18;;;8.35;;
26750;SDS011;14345;48.272;25.926;2022-11-20T03:54:04;10.18;;;7.40;;
26750;SDS011;14345;48.272;25.926;2022-11-20T03:56:31;7.30;;;5.72;;
26750;SDS011;14345;48.272;25.926;2022-11-20T03:58:57;10.18;;;6.97;;
26750;SDS011;14345;48.272;25.926;2022-11-20T04:01:25;11.13;;;7.35;;
26750;SDS011;14345;48.272;25.926;2022-11-20T04:03:51;11.20;;;7.57;;
26750;SDS011;14345;48.272;25.926;2022-11-20T04:06:28;10.50;;;7.75;;
26750;SDS011;14345;48.272;25.926;2022-11-20T04:08:54;10.38;;;7.13;;
26750;SDS011;14345;48.272;25.926;2022-11-20T04:11:22;10.23;;;6.70;;
26750;SDS011;14345;48.272;25.926;2022-11-20T04:13:49;12.82;;;7.85;;
26750;SDS011;14345;48.272;25.926;2022-11-20T04:16:15;12.88;;;7.97;;
26750;SDS011;14345;48.272;25.926;2022-11-20T04:18:41;12.70;;;8.43;;
26750;SDS011;14345;48.272;25.926;2022-11-20T04:21:08;11.70;;;8.18;;
26750;SDS011;14345;48.272;25.926;2022-11-20T04:23:34;9.30;;;6.85;;
26750;SDS011;14345;48.272;25.926;2022-11-20T04:26:04;12.27;;;6.80;;
26750;SDS011;14345;48.272;25.926;2022-11-20T04:28:30;12.15;;;6.93;;
26750;SDS011;14345;48.272;25.926;2022-11-20T04:33:29;7.43;;;5.38;;
26750;SDS011;14345;48.272;25.926;2022-11-20T04:35:55;8.75;;;5.93;;
26750;SDS011;14345;48.272;25.926;2022-11-20T04:38:25;9.88;;;6.30;;
26750;SDS011;14345;48.272;25.926;2022-11-20T04:40:52;11.05;;;7.05;;
26750;SDS011;14345;48.272;25.926;2022-11-20T04:43:21;9.57;;;6.55;;
26750;SDS011;14345;48.272;25.926;2022-11-20T04:45:50;6.93;;;5.32;;
26750;SDS011;14345;48.272;25.926;2022-11-20T04:48:16;12.75;;;8.23;;
26750;SDS011;14345;48.272;25.926;2022-11-20T04:50:42;11.93;;;7.15;;
26750;SDS011;14345;48.272;25.926;2022-11-20T04:53:08;11.38;;;8.10;;
26750;SDS011;14345;48.272;25.926;2022-11-20T04:55:34;12.48;;;7.97;;
26750;SDS011;14345;48.272;25.926;2022-11-20T04:58:00;10.23;;;6.65;;
26750;SDS011;14345;48.272;25.926;2022-11-20T05:00:26;9.85;;;6.47;;
26750;SDS011;14345;48.272;25.926;2022-11-20T05:02:52;11.00;;;7.28;;
26750;SDS011;14345;48.272;25.926;2022-11-20T05:05:18;8.88;;;6.55;;
26750;SDS011;14345;48.272;25.926;2022-11-20T05:07:44;10.40;;;6.63;;
26750;SDS011;14345;48.272;25.926;2022-11-20T05:10:10;14.40;;;9.07;;
26750;SDS011;14345;48.272;25.926;2022-11-20T05:12:36;9.68;;;7.10;;
26750;SDS011;14345;48.272;25.926;2022-11-20T05:15:02;13.88;;;8.48;;
26750;SDS011;14345;48.272;25.926;2022-11-20T05:17:28;12.50;;;7.97;;
26750;SDS011;14345;48.272;25.926;2022-11-20T05:19:54;11.02;;;7.07;;
26750;SDS011;14345;48.272;25.926;2022-11-20T05:22:21;14.55;;;9.18;;
26750;SDS011;14345;48.272;25.926;2022-11-20T05:24:47;13.95;;;8.20;;
26750;SDS011;14345;48.272;25.926;2022-11-20T05:27:13;11.57;;;7.65;;
26750;SDS011;14345;48.272;25.926;2022-11-20T05:29:39;10.88;;;7.82;;
26750;SDS011;14345;48.272;25.926;2022-11-20T05:32:05;11.70;;;7.60;;
26750;SDS011;14345;48.272;25.926;2022-11-20T05:34:34;9.25;;;6.95;;
26750;SDS011;14345;48.272;25.926;2022-11-20T05:37:00;12.13;;;7.53;;
26750;SDS011;14345;48.272;25.926;2022-11-20T05:39:26;9.60;;;6.45;;
26750;SDS011;14345;48.272;25.926;2022-11-20T05:41:52;11.48;;;7.70;;
26750;SDS011;14345;48.272;25.926;2022-11-20T05:44:38;9.27;;;6.53;;
26750;SDS011;14345;48.272;25.926;2022-11-20T05:47:04;11.88;;;7.80;;
26750;SDS011;14345;48.272;25.926;2022-11-20T05:49:30;12.02;;;7.88;;
26750;SDS011;14345;48.272;25.926;2022-11-20T05:51:56;12.40;;;8.77;;
26750;SDS011;14345;48.272;25.926;2022-11-20T05:54:22;14.02;;;8.25;;
26750;SDS011;14345;48.272;25.926;2022-11-20T05:56:48;14.02;;;8.85;;
26750;SDS011;14345;48.272;25.926;2022-11-20T05:59:14;11.35;;;7.80;;
26750;SDS011;14345;48.272;25.926;2022-11-20T06:01:40;13.85;;;8.50;;
26750;SDS011;14345;48.272;25.926;2022-11-20T06:04:06;11.43;;;7.60;;
26750;SDS011;14345;48.272;25.926;2022-11-20T06:06:32;9.95;;;7.15;;
26750;SDS011;14345;48.272;25.926;2022-11-20T06:08:58;11.90;;;7.95;;
26750;SDS011;14345;48.272;25.926;2022-11-20T06:11:24;14.93;;;9.77;;
26750;SDS011;14345;48.272;25.926;2022-11-20T06:13:51;12.40;;;8.73;;
26750;SDS011;14345;48.272;25.926;2022-11-20T06:16:18;10.60;;;8.15;;
26750;SDS011;14345;48.272;25.926;2022-11-20T06:18:45;13.68;;;8.93;;
26750;SDS011;14345;48.272;25.926;2022-11-20T06:21:13;13.93;;;8.65;;
26750;SDS011;14345;48.272;25.926;2022-11-20T06:23:39;17.65;;;11.73;;
26750;SDS011;14345;48.272;25.926;2022-11-20T06:26:10;17.42;;;10.32;;
26750;SDS011;14345;48.272;25.926;2022-11-20T06:28:36;15.30;;;10.10;;
26750;SDS011;14345;48.272;25.926;2022-11-20T06:31:02;14.13;;;9.82;;
26750;SDS011;14345;48.272;25.926;2022-11-20T06:33:29;14.63;;;10.38;;
26750;SDS011;14345;48.272;25.926;2022-11-20T06:35:58;14.82;;;10.32;;
26750;SDS011;14345;48.272;25.926;2022-11-20T06:38:24;13.18;;;9.15;;
26750;SDS011;14345;48.272;25.926;2022-11-20T06:40:50;15.52;;;8.65;;
26750;SDS011;14345;48.272;25.926;2022-11-20T06:43:17;15.23;;;9.65;;
26750;SDS011;14345;48.272;25.926;2022-11-20T06:45:43;11.85;;;8.50;;
26750;SDS011;14345;48.272;25.926;2022-11-20T06:48:09;11.68;;;8.48;;
26750;SDS011;14345;48.272;25.926;2022-11-20T06:50:38;14.18;;;9.75;;
26750;SDS011;14345;48.272;25.926;2022-11-20T06:53:04;13.13;;;8.90;;
26750;SDS011;14345;48.272;25.926;2022-11-20T06:55:31;10.93;;;8.43;;
26750;SDS011;14345;48.272;25.926;2022-11-20T06:57:57;12.48;;;8.73;;
26750;SDS011;14345;48.272;25.926;2022-11-20T07:00:24;12.27;;;8.77;;
26750;SDS011;14345;48.272;25.926;2022-11-20T07:02:50;10.65;;;7.72;;
26750;SDS011;14345;48.272;25.926;2022-11-20T07:05:16;17.48;;;10.05;;
26750;SDS011;14345;48.272;25.926;2022-11-20T07:07:42;13.50;;;9.85;;
26750;SDS011;14345;48.272;25.926;2022-11-20T07:10:08;12.85;;;9.40;;
26750;SDS011;14345;48.272;25.926;2022-11-20T07:12:35;14.85;;;9.75;;
26750;SDS011;14345;48.272;25.926;2022-11-20T07:15:01;14.93;;;9.45;;
26750;SDS011;14345;48.272;25.926;2022-11-20T07:17:27;19.90;;;12.23;;
26750;SDS011;14345;48.272;25.926;2022-11-20T07:19:53;16.35;;;10.20;;
26750;SDS011;14345;48.272;25.926;2022-11-20T07:22:19;15.07;;;10.32;;
26750;SDS011;14345;48.272;25.926;2022-11-20T07:24:46;20.23;;;13.20;;
26750;SDS011;14345;48.272;25.926;2022-11-20T07:27:13;14.85;;;10.82;;
26750;SDS011;14345;48.272;25.926;2022-11-20T07:29:39;11.80;;;8.77;;
26750;SDS011;14345;48.272;25.926;2022-11-20T07:32:05;13.20;;;9.07;;
26750;SDS011;14345;48.272;25.926;2022-11-20T07:34:31;10.77;;;7.82;;
26750;SDS011;14345;48.272;25.926;2022-11-20T07:36:57;11.38;;;7.80;;
26750;SDS011;14345;48.272;25.926;2022-11-20T07:39:23;12.20;;;8.70;;
26750;SDS011;14345;48.272;25.926;2022-11-20T07:41:49;11.43;;;8.82;;
26750;SDS011;14345;48.272;25.926;2022-11-20T07:44:15;13.60;;;9.55;;
26750;SDS011;14345;48.272;25.926;2022-11-20T07:46:41;17.02;;;10.70;;
26750;SDS011;14345;48.272;25.926;2022-11-20T07:49:07;13.07;;;9.52;;
26750;SDS011;14345;48.272;25.926;2022-11-20T07:51:33;13.18;;;8.93;;
26750;SDS011;14345;48.272;25.926;2022-11-20T07:53:59;14.68;;;10.57;;
26750;SDS011;14345;48.272;25.926;2022-11-20T07:56:25;12.23;;;9.23;;
26750;SDS011;14345;48.272;25.926;2022-11-20T07:58:51;10.85;;;8.18;;
26750;SDS011;14345;48.272;25.926;2022-11-20T08:01:17;9.38;;;7.68;;
26750;SDS011;14345;48.272;25.926;2022-11-20T08:03:43;10.73;;;8.05;;
26750;SDS011;14345;48.272;25.926;2022-11-20T08:06:09;8.75;;;7.15;;
26750;SDS011;14345;48.272;25.926;2022-11-20T08:08:35;8.50;;;7.13;;
26750;SDS011;14345;48.272;25.926;2022-11-20T08:11:01;8.57;;;7.40;;
26750;SDS011;14345;48.272;25.926;2022-11-20T08:13:45;9.45;;;7.30;;
26750;SDS011;14345;48.272;25.926;2022-11-20T08:16:30;9.40;;;7.10;;
26750;SDS011;14345;48.272;25.926;2022-11-20T08:18:56;9.20;;;7.28;;
26750;SDS011;14345;48.272;25.926;2022-11-20T08:21:22;8.40;;;7.22;;
26750;SDS011;14345;48.272;25.926;2022-11-20T08:23:48;10.07;;;7.07;;
26750;SDS011;14345;48.272;25.926;2022-11-20T08:26:14;12.02;;;9.00;;
26750;SDS011;14345;48.272;25.926;2022-11-20T08:28:40;9.63;;;7.88;;
26750;SDS011;14345;48.272;25.926;2022-11-20T08:31:07;9.70;;;7.30;;
26750;SDS011;14345;48.272;25.926;2022-11-20T08:33:34;8.23;;;6.22;;
26750;SDS011;14345;48.272;25.926;2022-11-20T08:36:04;7.85;;;6.75;;
26750;SDS011;14345;48.272;25.926;2022-11-20T08:38:30;7.68;;;6.35;;
26750;SDS011;14345;48.272;25.926;2022-11-20T08:41:00;8.10;;;6.40;;
26750;SDS011;14345;48.272;25.926;2022-11-20T08:43:44;10.23;;;7.03;;
26750;SDS011;14345;48.272;25.926;2022-11-20T08:46:11;8.82;;;7.45;;
26750;SDS011;14345;48.272;25.926;2022-11-20T08:48:37;9.57;;;7.10;;
26750;SDS011;14345;48.272;25.926;2022-11-20T08:51:03;9.43;;;7.03;;
26750;SDS011;14345;48.272;25.926;2022-11-20T08:53:29;8.57;;;6.38;;
26750;SDS011;14345;48.272;25.926;2022-11-20T08:55:56;7.75;;;6.47;;
26750;SDS011;14345;48.272;25.926;2022-11-20T08:58:22;8.50;;;6.80;;
26750;SDS011;14345;48.272;25.926;2022-11-20T09:00:48;6.40;;;5.57;;
26750;SDS011;14345;48.272;25.926;2022-11-20T09:03:14;7.53;;;6.32;;
26750;SDS011;14345;48.272;25.926;2022-11-20T09:05:40;9.05;;;6.85;;
26750;SDS011;14345;48.272;25.926;2022-11-20T09:08:07;7.30;;;5.97;;
26750;SDS011;14345;48.272;25.926;2022-11-20T09:10:33;6.93;;;5.97;;
26750;SDS011;14345;48.272;25.926;2022-11-20T09:13:00;6.68;;;5.97;;
26750;SDS011;14345;48.272;25.926;2022-11-20T09:15:26;7.40;;;6.32;;
26750;SDS011;14345;48.272;25.926;2022-11-20T09:17:54;8.32;;;6.65;;
26750;SDS011;14345;48.272;25.926;2022-11-20T09:20:20;8.02;;;6.60;;
26750;SDS011;14345;48.272;25.926;2022-11-20T09:22:46;8.85;;;6.68;;
26750;SDS011;14345;48.272;25.926;2022-11-20T09:25:13;7.18;;;6.22;;
26750;SDS011;14345;48.272;25.926;2022-11-20T09:27:39;10.07;;;8.02;;
26750;SDS011;14345;48.272;25.926;2022-11-20T09:30:08;8.93;;;7.88;;
26750;SDS011;14345;48.272;25.926;2022-11-20T09:32:34;8.95;;;7.65;;
26750;SDS011;14345;48.272;25.926;2022-11-20T09:35:00;8.85;;;7.88;;
26750;SDS011;14345;48.272;25.926;2022-11-20T09:37:27;11.57;;;8.07;;
26750;SDS011;14345;48.272;25.926;2022-11-20T09:39:53;8.55;;;7.25;;
26750;SDS011;14345;48.272;25.926;2022-11-20T09:42:40;9.02;;;7.80;;
26750;SDS011;14345;48.272;25.926;2022-11-20T09:55:38;11.90;;;9.52;;
26750;SDS011;14345;48.272;25.926;2022-11-20T09:58:06;10.85;;;8.63;;
26750;SDS011;14345;48.272;25.926;2022-11-20T10:00:32;12.38;;;9.63;;
26750;SDS011;14345;48.272;25.926;2022-11-20T10:03:35;13.07;;;9.93;;
26750;SDS011;14345;48.272;25.926;2022-11-20T10:05:53;13.50;;;10.90;;
26750;SDS011;14345;48.272;25.926;2022-11-20T10:08:29;17.08;;;11.80;;
26750;SDS011;14345;48.272;25.926;2022-11-20T10:11:07;15.18;;;11.65;;
26750;SDS011;14345;48.272;25.926;2022-11-20T10:26:28;13.30;;;10.23;;
26750;SDS011;14345;48.272;25.926;2022-11-20T10:29:13;16.33;;;11.50;;
26750;SDS011;14345;48.272;25.926;2022-11-20T10:31:40;14.27;;;11.30;;
26750;SDS011;14345;48.272;25.926;2022-11-20T10:34:23;14.10;;;10.20;;
26750;SDS011;14345;48.272;25.926;2022-11-20T10:36:55;16.05;;;10.50;;
26750;SDS011;14345;48.272;25.926;2022-11-20T10:39:35;13.07;;;10.15;;
26750;SDS011;14345;48.272;25.926;2022-11-20T10:42:02;12.35;;;9.70;;
26750;SDS011;14345;48.272;25.926;2022-11-20T10:44:33;12.73;;;9.77;;
26750;SDS011;14345;48.272;25.926;2022-11-20T10:47:18;12.25;;;10.05;;
26750;SDS011;14345;48.272;25.926;2022-11-20T10:49:46;14.55;;;11.10;;
26750;SDS011;14345;48.272;25.926;2022-11-20T11:02:34;16.35;;;12.15;;
26750;SDS011;14345;48.272;25.926;2022-11-20T11:05:04;14.48;;;11.23;;
26750;SDS011;14345;48.272;25.926;2022-11-20T11:07:35;17.17;;;12.18;;
26750;SDS011;14345;48.272;25.926;2022-11-20T11:10:11;16.65;;;11.88;;
26750;SDS011;14345;48.272;25.926;2022-11-20T11:12:42;16.05;;;11.63;;
26750;SDS011;14345;48.272;25.926;2022-11-20T11:15:42;18.10;;;13.07;;
26750;SDS011;14345;48.272;25.926;2022-11-20T11:18:01;14.82;;;11.50;;
26750;SDS011;14345;48.272;25.926;2022-11-20T11:20:27;19.08;;;13.68;;
26750;SDS011;14345;48.272;25.926;2022-11-20T11:22:56;19.60;;;13.50;;
26750;SDS011;14345;48.272;25.926;2022-11-20T11:25:33;16.45;;;12.85;;
26750;SDS011;14345;48.272;25.926;2022-11-20T11:28:03;17.35;;;12.77;;
26750;SDS011;14345;48.272;25.926;2022-11-20T11:30:40;16.73;;;11.80;;
26750;SDS011;14345;48.272;25.926;2022-11-20T11:33:09;14.30;;;11.27;;
26750;SDS011;14345;48.272;25.926;2022-11-20T11:35:43;15.43;;;11.38;;
26750;SDS011;14345;48.272;25.926;2022-11-20T11:38:13;15.25;;;11.80;;
26750;SDS011;14345;48.272;25.926;2022-11-20T11:40:40;17.10;;;12.35;;
26750;SDS011;14345;48.272;25.926;2022-11-20T11:43:07;14.90;;;11.40;;
26750;SDS011;14345;48.272;25.926;2022-11-20T11:46:02;15.35;;;11.90;;
26750;SDS011;14345;48.272;25.926;2022-11-20T11:48:31;15.68;;;11.05;;
26750;SDS011;14345;48.272;25.926;2022-11-20T11:50:57;15.02;;;10.88;;
26750;SDS011;14345;48.272;25.926;2022-11-20T11:53:23;16.98;;;11.85;;
26750;SDS011;14345;48.272;25.926;2022-11-20T14:16:28;20.95;;;15.20;;
26750;SDS011;14345;48.272;25.926;2022-11-20T14:18:54;23.85;;;16.35;;
26750;SDS011;14345;48.272;25.926;2022-11-20T14:21:24;22.58;;;16.33;;
26750;SDS011;14345;48.272;25.926;2022-11-20T14:24:06;29.35;;;19.02;;
26750;SDS011;14345;48.272;25.926;2022-11-20T14:26:32;22.17;;;14.95;;
26750;SDS011;14345;48.272;25.926;2022-11-20T14:28:59;24.45;;;15.90;;
26750;SDS011;14345;48.272;25.926;2022-11-20T14:31:25;25.52;;;17.70;;
26750;SDS011;14345;48.272;25.926;2022-11-20T14:33:52;23.85;;;15.95;;
26750;SDS011;14345;48.272;25.926;2022-11-20T14:36:20;20.83;;;14.60;;
26750;SDS011;14345;48.272;25.926;2022-11-20T14:38:46;24.45;;;16.58;;
26750;SDS011;14345;48.272;25.926;2022-11-20T14:41:19;26.88;;;19.13;;
26750;SDS011;14345;48.272;25.926;2022-11-20T14:43:47;25.83;;;17.40;;
26750;SDS011;14345;48.272;25.926;2022-11-20T14:46:13;27.02;;;18.13;;
26750;SDS011;14345;48.272;25.926;2022-11-20T14:48:54;24.80;;;17.05;;
26750;SDS011;14345;48.272;25.926;2022-11-20T14:53:53;28.25;;;18.48;;
26750;SDS011;14345;48.272;25.926;2022-11-20T14:56:23;28.73;;;18.70;;
26750;SDS011;14345;48.272;25.926;2022-11-20T14:58:56;27.00;;;17.70;;
26750;SDS011;14345;48.272;25.926;2022-11-20T15:01:29;29.60;;;18.75;;
26750;SDS011;14345;48.272;25.926;2022-11-20T15:06:27;28.48;;;18.73;;
26750;SDS011;14345;48.272;25.926;2022-11-20T15:08:54;29.15;;;18.83;;
26750;SDS011;14345;48.272;25.926;2022-11-20T15:11:22;31.52;;;19.95;;
26750;SDS011;14345;48.272;25.926;2022-11-20T15:13:51;29.45;;;18.15;;
26750;SDS011;14345;48.272;25.926;2022-11-20T15:16:18;35.30;;;21.73;;
26750;SDS011;14345;48.272;25.926;2022-11-20T15:18:44;27.80;;;18.52;;
26750;SDS011;14345;48.272;25.926;2022-11-20T15:21:14;26.40;;;17.92;;
26750;SDS011;14345;48.272;25.926;2022-11-20T15:23:41;30.15;;;20.02;;
26750;SDS011;14345;48.272;25.926;2022-11-20T15:26:07;28.38;;;18.80;;
26750;SDS011;14345;48.272;25.926;2022-11-20T15:28:34;29.75;;;19.55;;
26750;SDS011;14345;48.272;25.926;2022-11-20T15:31:02;34.28;;;21.63;;
26750;SDS011;14345;48.272;25.926;2022-11-20T15:33:28;33.85;;;21.52;;
26750;SDS011;14345;48.272;25.926;2022-11-20T15:35:54;36.83;;;23.08;;
26750;SDS011;14345;48.272;25.926;2022-11-20T15:38:20;42.35;;;26.58;;
26750;SDS011;14345;48.272;25.926;2022-11-20T15:40:46;40.72;;;26.27;;
26750;SDS011;14345;48.272;25.926;2022-11-20T15:43:13;47.60;;;29.30;;
26750;SDS011;14345;48.272;25.926;2022-11-20T15:48:08;36.67;;;23.60;;
26750;SDS011;14345;48.272;25.926;2022-11-20T15:50:41;39.15;;;24.58;;
26750;SDS011;14345;48.272;25.926;2022-11-20T15:55:35;37.47;;;23.80;;
26750;SDS011;14345;48.272;25.926;2022-11-20T15:58:01;43.25;;;26.23;;
26750;SDS011;14345;48.272;25.926;2022-11-20T16:00:27;38.03;;;25.08;;
26750;SDS011;14345;48.272;25.926;2022-11-20T16:02:53;34.88;;;21.73;;
26750;SDS011;14345;48.272;25.926;2022-11-20T16:05:19;32.35;;;20.45;;
26750;SDS011;14345;48.272;25.926;2022-11-20T16:07:48;32.03;;;21.13;;
26750;SDS011;14345;48.272;25.926;2022-11-20T16:10:15;29.15;;;19.00;;
26750;SDS011;14345;48.272;25.926;2022-11-20T16:12:41;29.58;;;19.10;;
26750;SDS011;14345;48.272;25.926;2022-11-20T16:15:25;33.55;;;20.98;;
26750;SDS011;14345;48.272;25.926;2022-11-20T16:18:10;32.60;;;19.40;;
26750;SDS011;14345;48.272;25.926;2022-11-20T16:20:37;30.20;;;18.52;;
26750;SDS011;14345;48.272;25.926;2022-11-20T16:23:03;28.45;;;18.23;;
26750;SDS011;14345;48.272;25.926;2022-11-20T16:25:29;31.50;;;18.52;;
26750;SDS011;14345;48.272;25.926;2022-11-20T16:27:56;33.35;;;19.70;;
26750;SDS011;14345;48.272;25.926;2022-11-20T16:30:22;32.22;;;20.17;;
26750;SDS011;14345;48.272;25.926;2022-11-20T16:32:48;38.08;;;23.55;;
26750;SDS011;14345;48.272;25.926;2022-11-20T16:35:14;37.90;;;23.83;;
26750;SDS011;14345;48.272;25.926;2022-11-20T16:37:41;39.42;;;24.83;;
26750;SDS011;14345;48.272;25.926;2022-11-20T16:40:08;39.60;;;24.33;;
26750;SDS011;14345;48.272;25.926;2022-11-20T16:42:35;37.15;;;24.77;;
26750;SDS011;14345;48.272;25.926;2022-11-20T16:45:02;32.70;;;22.50;;
26750;SDS011;14345;48.272;25.926;2022-11-20T16:47:28;35.65;;;22.45;;
26750;SDS011;14345;48.272;25.926;2022-11-20T16:49:54;33.28;;;20.65;;
26750;SDS011;14345;48.272;25.926;2022-11-20T16:52:20;31.35;;;19.95;;
26750;SDS011;14345;48.272;25.926;2022-11-20T16:54:47;34.00;;;20.40;;
26750;SDS011;14345;48.272;25.926;2022-11-20T16:57:13;29.58;;;17.77;;
26750;SDS011;14345;48.272;25.926;2022-11-20T16:59:39;32.83;;;20.23;;
26750;SDS011;14345;48.272;25.926;2022-11-20T17:02:05;39.00;;;23.38;;
26750;SDS011;14345;48.272;25.926;2022-11-20T17:04:31;40.30;;;24.20;;
26750;SDS011;14345;48.272;25.926;2022-11-20T17:06:57;41.22;;;25.95;;
26750;SDS011;14345;48.272;25.926;2022-11-20T17:09:23;51.78;;;32.10;;
26750;SDS011;14345;48.272;25.926;2022-11-20T17:11:49;48.17;;;30.05;;
26750;SDS011;14345;48.272;25.926;2022-11-20T17:14:15;40.58;;;27.17;;
26750;SDS011;14345;48.272;25.926;2022-11-20T17:16:41;38.00;;;24.27;;
26750;SDS011;14345;48.272;25.926;2022-11-20T17:19:07;38.72;;;23.45;;
26750;SDS011;14345;48.272;25.926;2022-11-20T17:21:34;35.58;;;22.13;;
26750;SDS011;14345;48.272;25.926;2022-11-20T17:24:01;33.00;;;20.35;;
26750;SDS011;14345;48.272;25.926;2022-11-20T17:26:29;30.05;;;18.48;;
26750;SDS011;14345;48.272;25.926;2022-11-20T17:29:03;28.13;;;16.70;;
26750;SDS011;14345;48.272;25.926;2022-11-20T17:31:30;29.00;;;17.45;;
26750;SDS011;14345;48.272;25.926;2022-11-20T17:33:57;34.35;;;19.77;;
26750;SDS011;14345;48.272;25.926;2022-11-20T17:36:26;30.25;;;18.25;;
26750;SDS011;14345;48.272;25.926;2022-11-20T17:38:53;33.88;;;20.10;;